Time;durP1;ratioP1;P1;durP2;ratioP2;P2;SDS_P1;SDS_P2;PMS_P1;PMS_P2;Temp;Humidity;BMP_temperature;BMP_pressure;BME280_temperature;BME280_humidity;BME280_pressure;Samples;Min_cycle;Max_cycle;Signal;HPM_P1;HPM_P2
2024/03/06 00:02:10;;;;;;;16.20;10.23;;;;;;;;;;5048872;28;20508;-61
2024/03/06 00:04:37;;;;;;;14.80;10.02;;;;;;;;;;5047564;28;20117;-61
2024/03/06 00:07:05;;;;;;;16.02;10.77;;;;;;;;;;5051661;28;20042;-60
2024/03/06 00:09:33;;;;;;;17.98;10.20;;;;;;;;;;5054733;28;20053;-61
2024/03/06 00:12:00;;;;;;;16.77;10.05;;;;;;;;;;5054262;28;20102;-61
2024/03/06 00:14:27;;;;;;;15.73;10.02;;;;;;;;;;5059675;28;20099;-60
2024/03/06 00:16:55;;;;;;;17.60;10.80;;;;;;;;;;5059470;28;20044;-60
2024/03/06 00:19:23;;;;;;;16.70;10.13;;;;;;;;;;5056455;28;20570;-59
2024/03/06 00:21:50;;;;;;;17.60;11.35;;;;;;;;;;5058369;28;20051;-58
2024/03/06 00:24:17;;;;;;;20.17;12.00;;;;;;;;;;5067495;28;20484;-60
2024/03/06 00:26:45;;;;;;;19.13;11.70;;;;;;;;;;5055810;28;20128;-61
2024/03/06 00:29:12;;;;;;;17.63;11.07;;;;;;;;;;5055011;28;20096;-61
2024/03/06 00:31:43;;;;;;;19.67;11.95;;;;;;;;;;5052844;28;20531;-59
2024/03/06 00:34:11;;;;;;;18.75;12.27;;;;;;;;;;5052808;28;20128;-61
2024/03/06 00:36:39;;;;;;;21.10;11.75;;;;;;;;;;5066301;28;20089;-60
2024/03/06 00:39:05;;;;;;;20.27;12.52;;;;;;;;;;5057650;28;20083;-60
2024/03/06 00:41:32;;;;;;;19.65;11.88;;;;;;;;;;5052455;28;20114;-61
2024/03/06 00:43:59;;;;;;;20.20;12.10;;;;;;;;;;5052850;28;20534;-61
2024/03/06 00:46:26;;;;;;;18.38;11.98;;;;;;;;;;5056305;28;20490;-60
2024/03/06 00:48:52;;;;;;;18.88;10.80;;;;;;;;;;5055171;28;20489;-59
2024/03/06 00:51:19;;;;;;;17.75;10.23;;;;;;;;;;5061630;28;20091;-61
2024/03/06 00:53:47;;;;;;;18.70;11.63;;;;;;;;;;5062862;28;20068;-59
2024/03/06 00:56:14;;;;;;;19.13;11.50;;;;;;;;;;5053171;28;20485;-59
2024/03/06 00:58:41;;;;;;;19.08;11.82;;;;;;;;;;5055942;28;20123;-60
2024/03/06 01:01:07;;;;;;;18.67;10.77;;;;;;;;;;5056556;28;20528;-60
2024/03/06 01:03:34;;;;;;;17.52;10.93;;;;;;;;;;5055152;28;20080;-61
2024/03/06 01:06:01;;;;;;;18.00;11.45;;;;;;;;;;5055952;28;20080;-58
2024/03/06 01:08:27;;;;;;;19.48;11.48;;;;;;;;;;5061832;28;20407;-60
2024/03/06 01:10:55;;;;;;;19.90;12.02;;;;;;;;;;5061415;28;20041;-60
2024/03/06 01:13:22;;;;;;;18.17;11.32;;;;;;;;;;5059044;28;20072;-60
2024/03/06 01:15:49;;;;;;;18.45;11.90;;;;;;;;;;5060460;28;20483;-60
2024/03/06 01:18:16;;;;;;;17.42;11.57;;;;;;;;;;5059792;28;20132;-61
2024/03/06 01:20:43;;;;;;;18.45;11.70;;;;;;;;;;5051468;28;20102;-61
2024/03/06 01:23:09;;;;;;;20.02;12.05;;;;;;;;;;5052006;28;20137;-61
2024/03/06 01:25:36;;;;;;;18.58;12.55;;;;;;;;;;5058177;28;20131;-61
2024/03/06 01:28:05;;;;;;;16.90;10.70;;;;;;;;;;5058942;28;20493;-59
2024/03/06 01:30:31;;;;;;;19.55;11.73;;;;;;;;;;5061302;28;20044;-55
2024/03/06 01:32:58;;;;;;;20.00;12.07;;;;;;;;;;5058144;28;20131;-60
2024/03/06 01:35:25;;;;;;;18.67;12.15;;;;;;;;;;5063357;28;20124;-61
2024/03/06 01:37:52;;;;;;;20.20;12.73;;;;;;;;;;5053498;28;20515;-61
2024/03/06 01:40:18;;;;;;;22.52;12.80;;;;;;;;;;5051634;28;20048;-61
2024/03/06 01:42:48;;;;;;;18.58;11.45;;;;;;;;;;5051491;28;20543;-61
2024/03/06 01:45:16;;;;;;;18.73;11.32;;;;;;;;;;5056137;28;20095;-59
2024/03/06 01:47:42;;;;;;;20.35;12.30;;;;;;;;;;5055330;28;20131;-59
2024/03/06 01:50:10;;;;;;;19.13;12.35;;;;;;;;;;5060049;28;20574;-61
2024/03/06 01:52:38;;;;;;;19.30;12.43;;;;;;;;;;5052080;28;20111;-61
2024/03/06 01:55:06;;;;;;;20.63;11.95;;;;;;;;;;5051171;28;20091;-61
2024/03/06 01:57:35;;;;;;;19.63;11.80;;;;;;;;;;5051181;28;20055;-61
2024/03/06 02:00:02;;;;;;;21.55;12.70;;;;;;;;;;5051424;28;20411;-60
2024/03/06 02:02:31;;;;;;;21.52;13.45;;;;;;;;;;5055001;28;20139;-56
2024/03/06 02:04:59;;;;;;;23.38;12.75;;;;;;;;;;5055401;28;20115;-60
2024/03/06 02:07:26;;;;;;;19.48;12.30;;;;;;;;;;5055766;28;20080;-60
2024/03/06 02:09:53;;;;;;;22.65;13.27;;;;;;;;;;5055994;28;20131;-60
2024/03/06 02:12:20;;;;;;;22.15;13.63;;;;;;;;;;5050689;28;20080;-59
2024/03/06 02:14:46;;;;;;;20.98;13.07;;;;;;;;;;5055866;28;20139;-60
2024/03/06 02:17:13;;;;;;;20.25;12.07;;;;;;;;;;5064068;28;20489;-60
2024/03/06 02:19:42;;;;;;;23.75;13.80;;;;;;;;;;5053377;28;20663;-59
2024/03/06 02:22:11;;;;;;;23.65;13.13;;;;;;;;;;5051689;28;20480;-60
2024/03/06 02:24:39;;;;;;;20.40;11.65;;;;;;;;;;5057269;28;20068;-60
2024/03/06 02:27:06;;;;;;;22.40;13.15;;;;;;;;;;5048338;28;20492;-60
2024/03/06 02:29:33;;;;;;;23.05;12.70;;;;;;;;;;5059153;28;20397;-60
2024/03/06 02:32:02;;;;;;;22.35;13.23;;;;;;;;;;5053455;28;20040;-59
2024/03/06 02:34:29;;;;;;;24.13;13.57;;;;;;;;;;5050529;28;20415;-58
2024/03/06 02:36:56;;;;;;;22.55;12.85;;;;;;;;;;5050710;28;20045;-60
2024/03/06 02:39:24;;;;;;;24.35;12.93;;;;;;;;;;5051054;28;20048;-61
2024/03/06 02:41:51;;;;;;;24.05;12.60;;;;;;;;;;5051306;28;20088;-61
2024/03/06 02:44:18;;;;;;;20.27;13.30;;;;;;;;;;5051131;28;20096;-59
2024/03/06 02:46:48;;;;;;;23.98;13.40;;;;;;;;;;5042406;28;20052;-59
2024/03/06 02:49:15;;;;;;;23.10;12.77;;;;;;;;;;5051027;28;20083;-59
2024/03/06 02:51:42;;;;;;;21.67;12.38;;;;;;;;;;5050736;28;20045;-60
2024/03/06 02:54:08;;;;;;;23.08;12.43;;;;;;;;;;5050558;28;20087;-61
2024/03/06 02:56:36;;;;;;;20.42;12.25;;;;;;;;;;5050238;28;20132;-60
2024/03/06 02:59:04;;;;;;;22.15;11.43;;;;;;;;;;5050748;28;20084;-61
2024/03/06 03:01:30;;;;;;;19.40;11.65;;;;;;;;;;5050432;28;20520;-60
2024/03/06 03:03:57;;;;;;;20.77;11.80;;;;;;;;;;5050643;28;20045;-61
2024/03/06 03:06:24;;;;;;;19.92;11.80;;;;;;;;;;5050487;28;20114;-58
2024/03/06 03:08:51;;;;;;;22.90;12.48;;;;;;;;;;5050814;28;20517;-60
2024/03/06 03:11:18;;;;;;;19.83;11.30;;;;;;;;;;5050959;28;20120;-61
2024/03/06 03:13:46;;;;;;;21.67;11.52;;;;;;;;;;5042645;28;20124;-58
2024/03/06 03:16:17;;;;;;;21.92;11.98;;;;;;;;;;5050136;28;20053;-61
2024/03/06 03:18:44;;;;;;;19.30;10.50;;;;;;;;;;5050537;28;20053;-61
2024/03/06 03:21:12;;;;;;;20.52;11.65;;;;;;;;;;5049698;28;20143;-61
2024/03/06 03:23:39;;;;;;;19.27;11.68;;;;;;;;;;5050407;28;20068;-60
2024/03/06 03:26:06;;;;;;;21.63;11.20;;;;;;;;;;5050251;28;20045;-61
2024/03/06 03:28:32;;;;;;;21.40;11.35;;;;;;;;;;5050564;28;20055;-61
2024/03/06 03:31:00;;;;;;;19.60;11.05;;;;;;;;;;5050832;28;20041;-61
2024/03/06 03:33:27;;;;;;;18.67;11.05;;;;;;;;;;5050436;28;20119;-61
2024/03/06 03:35:54;;;;;;;21.17;11.82;;;;;;;;;;5050290;28;20081;-60
2024/03/06 03:38:20;;;;;;;21.35;10.98;;;;;;;;;;5050490;28;20131;-61
2024/03/06 03:40:47;;;;;;;19.48;11.35;;;;;;;;;;5050521;28;20080;-61
2024/03/06 03:43:14;;;;;;;20.92;11.50;;;;;;;;;;5053692;28;20091;-60
2024/03/06 03:45:41;;;;;;;20.98;11.85;;;;;;;;;;5053493;28;20056;-61
2024/03/06 03:48:09;;;;;;;19.65;11.75;;;;;;;;;;5054026;28;20523;-61
2024/03/06 03:50:35;;;;;;;21.52;12.30;;;;;;;;;;5053910;28;20456;-60
2024/03/06 03:53:02;;;;;;;19.33;10.95;;;;;;;;;;5053890;28;20630;-61
2024/03/06 03:55:29;;;;;;;21.08;11.52;;;;;;;;;;5053291;28;20477;-61
2024/03/06 03:57:56;;;;;;;24.52;13.00;;;;;;;;;;5053651;28;20072;-61
2024/03/06 04:00:23;;;;;;;22.40;12.50;;;;;;;;;;5053382;28;20053;-61
2024/03/06 04:02:50;;;;;;;23.17;12.15;;;;;;;;;;5053444;28;20523;-60
2024/03/06 04:05:18;;;;;;;20.02;11.65;;;;;;;;;;5053321;28;20091;-60
2024/03/06 04:07:45;;;;;;;19.95;11.43;;;;;;;;;;5053393;28;20091;-60
2024/03/06 04:10:12;;;;;;;18.75;11.27;;;;;;;;;;5053362;28;20049;-59
2024/03/06 04:12:39;;;;;;;19.20;11.25;;;;;;;;;;5053193;28;20077;-60
2024/03/06 04:15:07;;;;;;;21.65;12.57;;;;;;;;;;5053026;28;20556;-59
2024/03/06 04:17:35;;;;;;;18.80;11.10;;;;;;;;;;5053485;28;20075;-60
2024/03/06 04:20:03;;;;;;;19.52;10.98;;;;;;;;;;5053318;28;20049;-58
2024/03/06 04:22:32;;;;;;;17.77;10.70;;;;;;;;;;5053200;28;20052;-60
2024/03/06 04:24:59;;;;;;;22.08;12.25;;;;;;;;;;5052992;28;20077;-60
2024/03/06 04:27:26;;;;;;;20.10;11.25;;;;;;;;;;5052941;28;20049;-61
2024/03/06 04:29:53;;;;;;;22.20;11.35;;;;;;;;;;5053242;28;20048;-60
2024/03/06 04:32:20;;;;;;;21.70;12.48;;;;;;;;;;5052618;28;20041;-61
2024/03/06 04:34:47;;;;;;;19.20;10.23;;;;;;;;;;5052710;28;20072;-59
2024/03/06 04:37:14;;;;;;;21.45;12.30;;;;;;;;;;5052780;28;20044;-61
2024/03/06 04:39:42;;;;;;;21.98;11.52;;;;;;;;;;5052775;28;20640;-61
2024/03/06 04:42:09;;;;;;;19.17;10.95;;;;;;;;;;5050970;28;20080;-61
2024/03/06 04:44:36;;;;;;;21.58;11.38;;;;;;;;;;5052401;28;20507;-61
2024/03/06 04:47:02;;;;;;;20.10;11.48;;;;;;;;;;5052453;28;20106;-60
2024/03/06 04:49:29;;;;;;;19.60;10.80;;;;;;;;;;5052719;28;20413;-60
2024/03/06 04:51:56;;;;;;;21.33;11.90;;;;;;;;;;5051860;28;20072;-61
2024/03/06 04:54:22;;;;;;;21.75;11.57;;;;;;;;;;5051707;28;20076;-61
2024/03/06 04:56:50;;;;;;;20.23;11.82;;;;;;;;;;5048488;28;20081;-61
2024/03/06 04:59:17;;;;;;;21.10;10.45;;;;;;;;;;5052685;28;20207;-61
2024/03/06 05:01:44;;;;;;;21.90;11.70;;;;;;;;;;5052148;28;20127;-59
2024/03/06 05:04:11;;;;;;;22.25;11.88;;;;;;;;;;5051941;28;20064;-60
2024/03/06 05:06:38;;;;;;;19.42;11.10;;;;;;;;;;5051856;28;20055;-61
2024/03/06 05:09:05;;;;;;;22.13;10.68;;;;;;;;;;5052154;28;20088;-61
2024/03/06 05:11:32;;;;;;;21.90;11.93;;;;;;;;;;5052353;28;20441;-60
2024/03/06 05:14:01;;;;;;;20.23;11.07;;;;;;;;;;5052355;28;20107;-60
2024/03/06 05:16:28;;;;;;;18.17;10.30;;;;;;;;;;5055161;28;20041;-60
2024/03/06 05:18:55;;;;;;;21.15;11.75;;;;;;;;;;5053596;28;20072;-58
2024/03/06 05:21:23;;;;;;;17.95;10.32;;;;;;;;;;5051790;28;20053;-60
2024/03/06 05:23:49;;;;;;;16.92;10.63;;;;;;;;;;5057927;28;20041;-57
2024/03/06 05:26:16;;;;;;;20.83;10.45;;;;;;;;;;5058075;28;20484;-59
2024/03/06 05:28:43;;;;;;;21.33;10.65;;;;;;;;;;5051801;28;20072;-60
2024/03/06 05:31:19;;;;;;;19.80;11.13;;;;;;;;;;5051653;28;20080;-60
2024/03/06 05:33:48;;;;;;;21.33;11.65;;;;;;;;;;5051282;28;20044;-60
2024/03/06 05:36:15;;;;;;;21.70;11.15;;;;;;;;;;5051393;28;20487;-58
2024/03/06 05:38:42;;;;;;;22.10;11.43;;;;;;;;;;5055001;28;20076;-58
2024/03/06 05:41:09;;;;;;;20.48;11.10;;;;;;;;;;5051869;28;20100;-60
2024/03/06 05:43:36;;;;;;;22.13;11.88;;;;;;;;;;5051677;28;20083;-60
2024/03/06 05:46:04;;;;;;;21.02;11.98;;;;;;;;;;5051457;28;20049;-60
2024/03/06 05:48:32;;;;;;;20.95;11.32;;;;;;;;;;5051348;28;20527;-59
2024/03/06 05:50:59;;;;;;;20.95;10.63;;;;;;;;;;5051385;28;20044;-61
2024/03/06 05:53:26;;;;;;;19.13;10.98;;;;;;;;;;5051863;28;20504;-60
2024/03/06 05:55:54;;;;;;;22.90;11.93;;;;;;;;;;5051039;28;20473;-60
2024/03/06 05:58:21;;;;;;;22.50;11.25;;;;;;;;;;5051662;28;20566;-58
2024/03/06 06:00:48;;;;;;;19.95;11.13;;;;;;;;;;5051553;28;20072;-60
2024/03/06 06:03:14;;;;;;;18.60;10.68;;;;;;;;;;5051044;28;20088;-60
2024/03/06 06:05:42;;;;;;;19.88;10.43;;;;;;;;;;5047236;28;20080;-57
2024/03/06 06:08:09;;;;;;;21.63;10.68;;;;;;;;;;5048211;28;20076;-59
2024/03/06 06:10:36;;;;;;;18.90;10.13;;;;;;;;;;5046514;28;20532;-59
2024/03/06 06:13:04;;;;;;;20.95;10.80;;;;;;;;;;5051389;28;20072;-60
2024/03/06 06:15:31;;;;;;;19.02;10.65;;;;;;;;;;5049535;28;20137;-59
2024/03/06 06:17:58;;;;;;;21.38;10.95;;;;;;;;;;5044684;28;20053;-59
2024/03/06 06:20:25;;;;;;;17.23;9.68;;;;;;;;;;5049481;28;20091;-60
2024/03/06 06:22:53;;;;;;;14.30;8.38;;;;;;;;;;5051293;28;20465;-60
2024/03/06 06:25:20;;;;;;;13.63;7.63;;;;;;;;;;5050971;28;20099;-58
2024/03/06 06:27:49;;;;;;;15.60;7.43;;;;;;;;;;5051276;28;20488;-59
2024/03/06 06:30:16;;;;;;;14.85;7.47;;;;;;;;;;5050991;28;20107;-58
2024/03/06 06:32:43;;;;;;;14.73;7.63;;;;;;;;;;5057087;28;20124;-58
2024/03/06 06:35:11;;;;;;;11.70;6.72;;;;;;;;;;5053135;28;20475;-60
2024/03/06 06:37:38;;;;;;;11.88;6.32;;;;;;;;;;5051839;28;20041;-60
2024/03/06 06:40:07;;;;;;;11.88;6.10;;;;;;;;;;5050974;28;20135;-58
2024/03/06 06:42:35;;;;;;;10.90;5.88;;;;;;;;;;5050912;28;20080;-60
2024/03/06 06:45:03;;;;;;;9.88;5.40;;;;;;;;;;5050715;28;20055;-59
2024/03/06 06:47:30;;;;;;;11.23;6.55;;;;;;;;;;5051196;28;20424;-59
2024/03/06 06:49:56;;;;;;;15.38;8.40;;;;;;;;;;5054141;28;20091;-60
2024/03/06 06:52:23;;;;;;;15.38;7.75;;;;;;;;;;5051485;28;20535;-59
2024/03/06 06:54:51;;;;;;;12.43;6.43;;;;;;;;;;5050911;28;20084;-60
2024/03/06 06:57:19;;;;;;;12.82;7.57;;;;;;;;;;5050969;28;20527;-60
2024/03/06 06:59:46;;;;;;;11.85;6.32;;;;;;;;;;5051630;28;20102;-60
2024/03/06 07:02:13;;;;;;;13.95;7.28;;;;;;;;;;5052228;28;20080;-57
2024/03/06 07:04:39;;;;;;;12.30;6.50;;;;;;;;;;5051123;28;21337;-58
2024/03/06 07:07:06;;;;;;;11.40;5.95;;;;;;;;;;5050410;28;20128;-59
2024/03/06 07:09:33;;;;;;;11.50;6.53;;;;;;;;;;5050898;28;20512;-60
2024/03/06 07:12:00;;;;;;;10.80;6.10;;;;;;;;;;5050887;28;20094;-60
2024/03/06 07:14:28;;;;;;;10.55;5.88;;;;;;;;;;5051724;28;20073;-59
2024/03/06 07:16:55;;;;;;;10.05;5.50;;;;;;;;;;5057557;28;20131;-60
2024/03/06 07:19:21;;;;;;;9.40;5.20;;;;;;;;;;5063046;28;20136;-61
2024/03/06 07:21:48;;;;;;;16.05;8.70;;;;;;;;;;5057940;28;20124;-60
2024/03/06 07:24:15;;;;;;;14.80;7.82;;;;;;;;;;5056666;28;20526;-57
2024/03/06 07:26:42;;;;;;;17.40;9.77;;;;;;;;;;5063392;28;20531;-59
2024/03/06 07:29:14;;;;;;;18.13;10.35;;;;;;;;;;5054415;28;20045;-60
2024/03/06 07:31:42;;;;;;;17.02;9.50;;;;;;;;;;5059851;28;20151;-58
2024/03/06 07:34:09;;;;;;;16.77;9.32;;;;;;;;;;5057465;28;20085;-60
2024/03/06 07:36:36;;;;;;;17.55;9.13;;;;;;;;;;5057992;28;20056;-60
2024/03/06 07:39:03;;;;;;;19.73;9.82;;;;;;;;;;5054609;28;20456;-58
2024/03/06 07:41:30;;;;;;;18.27;10.10;;;;;;;;;;5055669;28;20049;-56
2024/03/06 07:44:13;;;;;;;17.92;9.95;;;;;;;;;;5056438;28;20508;-60
2024/03/06 07:46:53;;;;;;;17.85;9.05;;;;;;;;;;5055628;28;20065;-59
2024/03/06 07:49:21;;;;;;;11.55;6.07;;;;;;;;;;5052830;28;20098;-60
2024/03/06 07:51:48;;;;;;;8.77;5.57;;;;;;;;;;5048651;28;20124;-60
2024/03/06 07:54:15;;;;;;;8.77;5.38;;;;;;;;;;5060378;28;20084;-60
2024/03/06 07:56:41;;;;;;;9.88;6.13;;;;;;;;;;5062412;28;20132;-60
2024/03/06 07:59:08;;;;;;;11.82;6.63;;;;;;;;;;5053250;28;20045;-60
2024/03/06 08:01:35;;;;;;;10.50;5.97;;;;;;;;;;5053885;28;20141;-60
2024/03/06 08:04:03;;;;;;;8.80;5.78;;;;;;;;;;5056417;28;20083;-60
2024/03/06 08:06:32;;;;;;;8.75;5.35;;;;;;;;;;5056956;28;20742;-60
2024/03/06 08:09:01;;;;;;;11.25;6.47;;;;;;;;;;5054668;28;20052;-59
2024/03/06 08:11:28;;;;;;;11.90;6.45;;;;;;;;;;5054294;28;20041;-60
2024/03/06 08:13:58;;;;;;;10.02;5.65;;;;;;;;;;5050213;28;20132;-66
2024/03/06 08:16:25;;;;;;;9.35;5.97;;;;;;;;;;5054442;28;20056;-59
2024/03/06 08:18:52;;;;;;;9.48;5.40;;;;;;;;;;5056888;28;20045;-58
2024/03/06 08:21:20;;;;;;;10.80;5.95;;;;;;;;;;5050888;28;20049;-58
2024/03/06 08:23:47;;;;;;;12.00;7.25;;;;;;;;;;5051133;28;20045;-59
2024/03/06 08:26:14;;;;;;;14.35;7.57;;;;;;;;;;5051267;28;20124;-60
2024/03/06 08:28:40;;;;;;;13.43;7.22;;;;;;;;;;5054812;28;20136;-60
2024/03/06 08:31:08;;;;;;;11.55;7.38;;;;;;;;;;5054928;28;20135;-57
2024/03/06 08:33:34;;;;;;;13.05;7.53;;;;;;;;;;5048754;28;20407;-59
2024/03/06 08:36:02;;;;;;;11.68;6.90;;;;;;;;;;5056078;28;20076;-60
2024/03/06 08:38:30;;;;;;;13.18;6.63;;;;;;;;;;5054766;28;20037;-60
2024/03/06 08:40:57;;;;;;;11.73;6.85;;;;;;;;;;5057776;28;20467;-58
2024/03/06 08:43:23;;;;;;;12.38;7.03;;;;;;;;;;5055102;28;20085;-54
2024/03/06 08:45:50;;;;;;;11.07;6.55;;;;;;;;;;5054847;28;20080;-60
2024/03/06 08:48:17;;;;;;;13.10;7.78;;;;;;;;;;5048941;28;20179;-62
2024/03/06 08:50:43;;;;;;;15.90;7.43;;;;;;;;;;5054975;28;20508;-60
2024/03/06 08:53:10;;;;;;;16.70;8.50;;;;;;;;;;5056495;28;20080;-57
2024/03/06 08:55:38;;;;;;;17.30;8.88;;;;;;;;;;5047572;28;20045;-56
2024/03/06 08:58:05;;;;;;;18.75;10.63;;;;;;;;;;5062837;28;20502;-54
2024/03/06 09:00:32;;;;;;;17.33;9.82;;;;;;;;;;5051110;28;20136;-48
2024/03/06 09:02:59;;;;;;;19.15;10.38;;;;;;;;;;5061986;28;20506;-65
2024/03/06 09:05:26;;;;;;;18.98;10.90;;;;;;;;;;5051410;28;20049;-64
2024/03/06 09:07:53;;;;;;;22.20;11.82;;;;;;;;;;5057940;28;20504;-63
2024/03/06 09:10:19;;;;;;;20.13;11.20;;;;;;;;;;5050375;28;20097;-58
2024/03/06 09:12:48;;;;;;;21.35;11.80;;;;;;;;;;5058452;28;20433;-56
2024/03/06 09:15:16;;;;;;;22.08;11.40;;;;;;;;;;5052325;28;20092;-55
2024/03/06 09:17:44;;;;;;;23.75;12.95;;;;;;;;;;5043386;28;20046;-52
2024/03/06 09:20:11;;;;;;;20.50;11.32;;;;;;;;;;5042837;28;20061;-58
2024/03/06 09:22:38;;;;;;;20.42;11.93;;;;;;;;;;5049586;28;20052;-56
2024/03/06 09:25:06;;;;;;;18.92;11.27;;;;;;;;;;5051261;28;20076;-57
2024/03/06 09:27:33;;;;;;;20.90;11.30;;;;;;;;;;5052066;28;20505;-57
2024/03/06 09:30:02;;;;;;;19.98;12.55;;;;;;;;;;5064200;28;20084;-56
2024/03/06 09:32:30;;;;;;;18.98;10.77;;;;;;;;;;5062699;28;20044;-54
2024/03/06 09:34:56;;;;;;;21.15;11.45;;;;;;;;;;5050895;28;20189;-57
2024/03/06 09:37:23;;;;;;;22.55;11.65;;;;;;;;;;5052768;28;20120;-57
2024/03/06 09:39:50;;;;;;;20.58;11.85;;;;;;;;;;5050183;28;20088;-55
2024/03/06 09:42:17;;;;;;;20.10;10.80;;;;;;;;;;5050666;28;20063;-54
2024/03/06 09:44:46;;;;;;;19.88;11.05;;;;;;;;;;5056676;28;20083;-58
2024/03/06 09:47:15;;;;;;;22.33;11.15;;;;;;;;;;5058571;28;20063;-58
2024/03/06 09:49:42;;;;;;;18.58;10.93;;;;;;;;;;5051987;28;20128;-57
2024/03/06 09:52:10;;;;;;;19.15;11.23;;;;;;;;;;5032637;28;20539;-58
2024/03/06 09:54:38;;;;;;;20.40;10.98;;;;;;;;;;5050262;28;20052;-55
2024/03/06 09:57:05;;;;;;;19.98;11.27;;;;;;;;;;5050034;28;20459;-57
2024/03/06 09:59:32;;;;;;;18.95;10.57;;;;;;;;;;5050412;28;20076;-54
2024/03/06 10:02:02;;;;;;;19.88;11.07;;;;;;;;;;5049687;28;20129;-56
2024/03/06 10:04:30;;;;;;;18.63;10.87;;;;;;;;;;5050260;28;20079;-55
2024/03/06 10:06:58;;;;;;;20.13;11.43;;;;;;;;;;5050139;28;20037;-57
2024/03/06 10:09:26;;;;;;;20.27;11.57;;;;;;;;;;5050302;28;20077;-54
2024/03/06 10:11:53;;;;;;;22.17;12.55;;;;;;;;;;5049727;28;20076;-57
2024/03/06 10:14:20;;;;;;;18.05;10.88;;;;;;;;;;5049617;28;20077;-57
2024/03/06 10:16:55;;;;;;;18.17;10.80;;;;;;;;;;5062801;28;20121;-58
2024/03/06 10:19:23;;;;;;;16.75;9.52;;;;;;;;;;5053991;28;20079;-58
2024/03/06 10:21:52;;;;;;;15.48;8.57;;;;;;;;;;5049790;28;20055;-57
2024/03/06 10:24:21;;;;;;;20.45;10.60;;;;;;;;;;5055852;28;20048;-55
2024/03/06 10:26:48;;;;;;;18.30;10.32;;;;;;;;;;5049439;28;20059;-56
2024/03/06 10:29:19;;;;;;;19.58;11.23;;;;;;;;;;5049877;28;20045;-59
2024/03/06 10:31:50;;;;;;;19.60;10.25;;;;;;;;;;5052332;28;20785;-58
2024/03/06 10:34:17;;;;;;;18.40;10.98;;;;;;;;;;5050571;28;20083;-58
2024/03/06 10:36:44;;;;;;;16.58;10.02;;;;;;;;;;5065270;28;20059;-56
2024/03/06 10:39:14;;;;;;;18.48;10.32;;;;;;;;;;5056901;28;20579;-58
2024/03/06 10:41:42;;;;;;;19.67;10.20;;;;;;;;;;5062624;28;20157;-59
2024/03/06 10:44:14;;;;;;;17.08;9.85;;;;;;;;;;5052578;28;20041;-58
2024/03/06 10:46:47;;;;;;;16.58;10.13;;;;;;;;;;5048636;28;20132;-57
2024/03/06 10:49:14;;;;;;;15.57;9.20;;;;;;;;;;5049634;28;20103;-58
2024/03/06 10:51:43;;;;;;;16.15;8.95;;;;;;;;;;5053027;28;20083;-55
2024/03/06 10:54:10;;;;;;;14.55;8.27;;;;;;;;;;5053260;28;20052;-58
2024/03/06 10:56:42;;;;;;;13.38;7.40;;;;;;;;;;5054180;28;20083;-58
2024/03/06 10:59:12;;;;;;;12.43;7.72;;;;;;;;;;5055952;28;20048;-57
2024/03/06 11:01:39;;;;;;;14.13;7.35;;;;;;;;;;5055839;28;20493;-59
2024/03/06 11:04:07;;;;;;;13.48;7.72;;;;;;;;;;5059215;28;20149;-57
2024/03/06 11:06:34;;;;;;;13.68;7.97;;;;;;;;;;5052406;28;20409;-53
2024/03/06 11:09:01;;;;;;;14.00;7.40;;;;;;;;;;5048989;28;20049;-57
2024/03/06 11:11:28;;;;;;;13.10;7.20;;;;;;;;;;5053468;28;20073;-58
2024/03/06 11:14:00;;;;;;;10.35;6.95;;;;;;;;;;5060107;28;20088;-61
2024/03/06 11:16:33;;;;;;;12.02;6.88;;;;;;;;;;5061925;28;20088;-58
2024/03/06 11:19:08;;;;;;;11.88;6.70;;;;;;;;;;5058343;28;20044;-57
2024/03/06 11:21:36;;;;;;;12.38;6.63;;;;;;;;;;5057522;28;20052;-56
2024/03/06 11:24:22;;;;;;;13.95;7.55;;;;;;;;;;5054811;28;20479;-53
2024/03/06 11:26:58;;;;;;;13.82;7.70;;;;;;;;;;5058283;28;20052;-56
2024/03/06 11:29:29;;;;;;;15.85;8.88;;;;;;;;;;5059623;28;20248;-56
2024/03/06 11:32:03;;;;;;;;;;;;;;;;;;5053861;28;20096;-59
2024/03/06 11:34:31;;;;;;;12.00;6.95;;;;;;;;;;5053694;28;19921;-56
2024/03/06 11:36:59;;;;;;;13.00;7.70;;;;;;;;;;5056554;28;20508;-58
2024/03/06 11:39:30;;;;;;;11.50;7.15;;;;;;;;;;5053519;28;20436;-57
2024/03/06 11:41:56;;;;;;;;;;;;;;;;;;5056336;28;20049;-55
2024/03/06 11:44:24;;;;;;;12.07;6.60;;;;;;;;;;5052922;28;20446;-57
2024/03/06 11:46:59;;;;;;;11.23;5.95;;;;;;;;;;5052088;28;20124;-56
2024/03/06 11:49:28;;;;;;;11.30;7.25;;;;;;;;;;5054141;28;20045;-57
2024/03/06 11:51:57;;;;;;;11.38;7.00;;;;;;;;;;5051335;28;20681;-55
2024/03/06 11:54:26;;;;;;;13.00;6.80;;;;;;;;;;5052393;28;20132;-54
2024/03/06 11:56:55;;;;;;;10.88;6.85;;;;;;;;;;5051920;28;20060;-56
2024/03/06 11:59:23;;;;;;;10.77;7.47;;;;;;;;;;5052131;28;20052;-56
2024/03/06 12:01:52;;;;;;;12.15;7.20;;;;;;;;;;5051144;28;20055;-57
2024/03/06 12:04:20;;;;;;;13.02;7.25;;;;;;;;;;5053087;28;20079;-56
2024/03/06 12:06:47;;;;;;;12.55;7.43;;;;;;;;;;5052122;28;20077;-55
2024/03/06 12:09:14;;;;;;;14.00;8.40;;;;;;;;;;5052460;28;20053;-56
2024/03/06 12:11:43;;;;;;;14.93;8.30;;;;;;;;;;5052407;28;20049;-58
2024/03/06 12:14:14;;;;;;;12.55;7.72;;;;;;;;;;5055278;28;20044;-55
2024/03/06 12:16:41;;;;;;;15.20;8.60;;;;;;;;;;5057365;28;20083;-58
2024/03/06 12:19:09;;;;;;;13.32;8.23;;;;;;;;;;5051887;28;20128;-58
2024/03/06 12:21:37;;;;;;;15.52;9.23;;;;;;;;;;5059994;28;20041;-57
2024/03/06 12:24:05;;;;;;;17.63;10.35;;;;;;;;;;5060827;28;20370;-65
2024/03/06 12:26:32;;;;;;;17.55;8.77;;;;;;;;;;5059640;28;20084;-58
2024/03/06 12:29:06;;;;;;;14.55;8.23;;;;;;;;;;5056972;28;20099;-55
2024/03/06 12:31:33;;;;;;;15.07;8.48;;;;;;;;;;5055176;28;20041;-66
2024/03/06 12:34:02;;;;;;;14.82;8.18;;;;;;;;;;5065509;28;20081;-63
2024/03/06 12:36:34;;;;;;;14.35;7.57;;;;;;;;;;5061309;28;20041;-55
2024/03/06 12:39:03;;;;;;;14.27;8.10;;;;;;;;;;5057156;28;20128;-55
2024/03/06 12:41:30;;;;;;;15.32;7.95;;;;;;;;;;5060973;28;20075;-56
2024/03/06 12:43:57;;;;;;;13.63;7.75;;;;;;;;;;5058827;28;20077;-53
2024/03/06 12:46:26;;;;;;;15.20;8.25;;;;;;;;;;5057996;28;20049;-56
2024/03/06 12:48:53;;;;;;;14.02;8.40;;;;;;;;;;5058257;28;20052;-59
2024/03/06 12:51:19;;;;;;;15.00;7.60;;;;;;;;;;5061705;28;20128;-56
2024/03/06 12:53:48;;;;;;;15.77;8.15;;;;;;;;;;5065083;28;20084;-54
2024/03/06 12:56:14;;;;;;;18.65;8.98;;;;;;;;;;5050745;28;20143;-54
2024/03/06 12:58:41;;;;;;;16.10;7.97;;;;;;;;;;5051061;28;20504;-56
2024/03/06 13:01:08;;;;;;;16.25;8.65;;;;;;;;;;5051003;28;20055;-54
2024/03/06 13:03:34;;;;;;;16.77;8.80;;;;;;;;;;5056432;28;20142;-55
2024/03/06 13:06:01;;;;;;;14.75;8.35;;;;;;;;;;5050421;28;20080;-56
2024/03/06 13:08:28;;;;;;;15.13;8.63;;;;;;;;;;5050793;28;20124;-55
2024/03/06 13:10:56;;;;;;;14.55;7.38;;;;;;;;;;5050682;28;20132;-56
2024/03/06 13:13:24;;;;;;;9.68;6.75;;;;;;;;;;5050422;28;20059;-57
2024/03/06 13:15:51;;;;;;;12.05;6.88;;;;;;;;;;5050433;28;20045;-56
2024/03/06 13:18:18;;;;;;;12.05;7.43;;;;;;;;;;5050595;28;20468;-57
2024/03/06 13:20:45;;;;;;;13.30;7.80;;;;;;;;;;5050649;28;20132;-57
2024/03/06 13:23:12;;;;;;;12.25;8.10;;;;;;;;;;5050775;28;20077;-58
2024/03/06 13:25:39;;;;;;;12.82;7.03;;;;;;;;;;5049139;28;20076;-53
2024/03/06 13:28:08;;;;;;;13.32;7.57;;;;;;;;;;5050479;28;20480;-54
2024/03/06 13:30:35;;;;;;;13.90;7.47;;;;;;;;;;5050417;28;20045;-57
2024/03/06 13:33:02;;;;;;;14.98;7.78;;;;;;;;;;5048381;28;20161;-58
2024/03/06 13:35:28;;;;;;;16.33;9.63;;;;;;;;;;5049896;28;20076;-56
2024/03/06 13:37:55;;;;;;;16.50;9.68;;;;;;;;;;5042207;28;20478;-56
2024/03/06 13:40:22;;;;;;;16.08;8.85;;;;;;;;;;5050068;28;20124;-54
2024/03/06 13:42:48;;;;;;;15.52;9.10;;;;;;;;;;5049196;28;20175;-54
2024/03/06 13:45:17;;;;;;;16.27;7.72;;;;;;;;;;5049831;28;20083;-61
2024/03/06 13:47:44;;;;;;;15.95;8.57;;;;;;;;;;5050011;28;20481;-60
2024/03/06 13:50:12;;;;;;;15.45;8.23;;;;;;;;;;5049269;28;20092;-52
2024/03/06 13:52:39;;;;;;;13.80;8.40;;;;;;;;;;5049643;28;20473;-51
2024/03/06 13:55:07;;;;;;;12.95;6.85;;;;;;;;;;5049499;28;20080;-55
2024/03/06 13:57:35;;;;;;;12.50;7.18;;;;;;;;;;5050239;28;20092;-60
2024/03/06 14:00:03;;;;;;;14.73;7.45;;;;;;;;;;5048794;28;20210;-58
2024/03/06 14:02:31;;;;;;;11.40;6.53;;;;;;;;;;5052096;28;20052;-54
2024/03/06 14:04:58;;;;;;;12.68;7.07;;;;;;;;;;5053720;28;20106;-52
2024/03/06 14:07:25;;;;;;;12.10;6.95;;;;;;;;;;5049916;28;20071;-61
2024/03/06 14:09:52;;;;;;;10.60;6.18;;;;;;;;;;5052695;28;20178;-54
2024/03/06 14:12:18;;;;;;;11.43;7.00;;;;;;;;;;5049952;28;20048;-55
2024/03/06 14:14:46;;;;;;;11.95;6.63;;;;;;;;;;5051397;28;20133;-62
2024/03/06 14:17:13;;;;;;;11.05;6.50;;;;;;;;;;5051395;28;20416;-54
2024/03/06 14:19:41;;;;;;;13.35;7.05;;;;;;;;;;5052553;28;20477;-59
2024/03/06 14:22:08;;;;;;;14.93;7.63;;;;;;;;;;5050153;28;20049;-55
2024/03/06 14:24:35;;;;;;;13.13;7.63;;;;;;;;;;5049187;28;20134;-56
2024/03/06 14:27:02;;;;;;;13.63;7.93;;;;;;;;;;5048650;28;20099;-57